sensor_id;sensor_type;location;lat;lon;timestamp;pressure;altitude;pressure_sealevel;temperature;humidity
39301;BME280;25019;42.626;23.380;2023-12-07T00:01:09;94012.56;;;3.50;100.00
39301;BME280;25019;42.626;23.380;2023-12-07T00:03:35;93970.31;;;3.26;100.00
39301;BME280;25019;42.626;23.380;2023-12-07T00:06:01;94091.97;;;4.02;100.00
39301;BME280;25019;42.626;23.380;2023-12-07T00:08:26;94091.78;;;4.04;100.00
39301;BME280;25019;42.626;23.380;2023-12-07T00:10:52;94071.63;;;3.91;100.00
39301;BME280;25019;42.626;23.380;2023-12-07T00:13:18;94024.84;;;3.56;100.00
39301;BME280;25019;42.626;23.380;2023-12-07T00:15:43;94070.47;;;3.87;100.00
39301;BME280;25019;42.626;23.380;2023-12-07T00:18:09;94057.00;;;3.77;100.00
39301;BME280;25019;42.626;23.380;2023-12-07T00:20:35;94094.97;;;4.06;100.00
39301;BME280;25019;42.626;23.380;2023-12-07T00:23:00;94038.44;;;3.71;100.00
39301;BME280;25019;42.626;23.380;2023-12-07T00:25:26;94099.53;;;4.17;100.00
39301;BME280;25019;42.626;23.380;2023-12-07T00:27:52;94098.75;;;4.17;100.00
39301;BME280;25019;42.626;23.380;2023-12-07T00:30:17;94100.13;;;4.19;100.00
39301;BME280;25019;42.626;23.380;2023-12-07T00:32:43;94097.72;;;4.18;100.00
39301;BME280;25019;42.626;23.380;2023-12-07T00:35:13;94074.75;;;4.07;100.00
39301;BME280;25019;42.626;23.380;2023-12-07T00:37:39;94014.28;;;3.63;100.00
39301;BME280;25019;42.626;23.380;2023-12-07T00:40:05;94087.03;;;4.13;100.00
39301;BME280;25019;42.626;23.380;2023-12-07T00:42:31;94045.66;;;3.83;100.00
39301;BME280;25019;42.626;23.380;2023-12-07T00:44:56;94073.81;;;4.01;100.00
39301;BME280;25019;42.626;23.380;2023-12-07T00:47:22;94096.75;;;4.12;100.00
39301;BME280;25019;42.626;23.380;2023-12-07T00:49:48;94020.50;;;3.68;100.00
39301;BME280;25019;42.626;23.380;2023-12-07T00:52:14;94056.44;;;4.00;100.00
39301;BME280;25019;42.626;23.380;2023-12-07T00:54:40;94081.72;;;4.19;100.00
39301;BME280;25019;42.626;23.380;2023-12-07T00:57:06;94083.34;;;4.20;100.00
39301;BME280;25019;42.626;23.380;2023-12-07T00:59:32;94025.41;;;3.83;100.00
39301;BME280;25019;42.626;23.380;2023-12-07T01:02:05;94079.88;;;4.20;100.00
39301;BME280;25019;42.626;23.380;2023-12-07T01:04:32;94081.44;;;4.28;100.00
39301;BME280;25019;42.626;23.380;2023-12-07T01:06:58;94057.53;;;4.11;100.00
39301;BME280;25019;42.626;23.380;2023-12-07T01:09:24;94030.41;;;3.92;100.00
39301;BME280;25019;42.626;23.380;2023-12-07T01:11:50;94081.28;;;4.23;100.00
39301;BME280;25019;42.626;23.380;2023-12-07T01:14:17;93978.78;;;3.53;100.00
39301;BME280;25019;42.626;23.380;2023-12-07T01:16:43;94068.41;;;4.14;100.00
39301;BME280;25019;42.626;23.380;2023-12-07T01:19:09;94077.59;;;4.05;100.00
39301;BME280;25019;42.626;23.380;2023-12-07T01:21:35;94084.56;;;4.18;100.00
39301;BME280;25019;42.626;23.380;2023-12-07T01:24:01;94080.69;;;4.20;100.00
39301;BME280;25019;42.626;23.380;2023-12-07T01:26:27;94073.84;;;4.19;100.00
39301;BME280;25019;42.626;23.380;2023-12-07T01:28:53;94068.34;;;4.21;100.00
39301;BME280;25019;42.626;23.380;2023-12-07T01:31:19;94032.94;;;3.80;100.00
39301;BME280;25019;42.626;23.380;2023-12-07T01:33:44;94072.44;;;4.17;100.00
39301;BME280;25019;42.626;23.380;2023-12-07T01:36:10;94048.47;;;4.07;100.00
39301;BME280;25019;42.626;23.380;2023-12-07T01:38:36;94072.00;;;4.20;100.00
39301;BME280;25019;42.626;23.380;2023-12-07T01:41:02;94000.22;;;3.75;100.00
39301;BME280;25019;42.626;23.380;2023-12-07T01:43:28;94042.78;;;4.10;100.00
39301;BME280;25019;42.626;23.380;2023-12-07T01:45:56;94059.66;;;4.20;100.00
39301;BME280;25019;42.626;23.380;2023-12-07T01:48:24;93998.19;;;3.78;100.00
39301;BME280;25019;42.626;23.380;2023-12-07T01:50:55;94069.81;;;4.17;100.00
39301;BME280;25019;42.626;23.380;2023-12-07T01:53:24;94062.78;;;4.11;100.00
39301;BME280;25019;42.626;23.380;2023-12-07T01:55:52;94000.50;;;3.67;100.00
39301;BME280;25019;42.626;23.380;2023-12-07T01:58:19;94045.16;;;3.93;100.00
39301;BME280;25019;42.626;23.380;2023-12-07T02:00:46;94036.16;;;3.82;100.00
39301;BME280;25019;42.626;23.380;2023-12-07T02:03:12;94014.50;;;3.61;100.00
39301;BME280;25019;42.626;23.380;2023-12-07T02:05:42;93982.38;;;3.34;100.00
39301;BME280;25019;42.626;23.380;2023-12-07T02:08:08;94021.78;;;3.59;100.00
39301;BME280;25019;42.626;23.380;2023-12-07T02:10:34;94074.00;;;3.99;100.00
39301;BME280;25019;42.626;23.380;2023-12-07T02:13:00;94038.19;;;3.80;100.00
39301;BME280;25019;42.626;23.380;2023-12-07T02:15:26;94073.38;;;4.04;100.00
39301;BME280;25019;42.626;23.380;2023-12-07T02:23:08;94018.25;;;3.72;100.00
39301;BME280;25019;42.626;23.380;2023-12-07T02:29:14;94010.31;;;3.79;100.00
39301;BME280;25019;42.626;23.380;2023-12-07T02:31:40;94052.47;;;4.09;100.00
39301;BME280;25019;42.626;23.380;2023-12-07T02:34:06;94066.44;;;4.10;100.00
39301;BME280;25019;42.626;23.380;2023-12-07T02:36:32;94057.16;;;4.07;100.00
39301;BME280;25019;42.626;23.380;2023-12-07T02:38:59;94043.66;;;4.03;100.00
39301;BME280;25019;42.626;23.380;2023-12-07T02:41:30;94013.69;;;3.86;100.00
39301;BME280;25019;42.626;23.380;2023-12-07T02:43:57;94051.63;;;4.15;100.00
39301;BME280;25019;42.626;23.380;2023-12-07T02:46:24;94041.78;;;4.11;100.00
39301;BME280;25019;42.626;23.380;2023-12-07T02:48:50;93999.16;;;3.83;100.00
39301;BME280;25019;42.626;23.380;2023-12-07T02:51:16;94058.41;;;4.23;100.00
39301;BME280;25019;42.626;23.380;2023-12-07T02:53:42;94058.41;;;4.23;100.00
39301;BME280;25019;42.626;23.380;2023-12-07T02:56:08;94048.81;;;4.17;100.00
39301;BME280;25019;42.626;23.380;2023-12-07T02:58:33;94056.13;;;4.08;100.00
39301;BME280;25019;42.626;23.380;2023-12-07T03:00:59;94049.81;;;3.90;100.00
39301;BME280;25019;42.626;23.380;2023-12-07T03:03:25;94063.66;;;4.04;100.00
39301;BME280;25019;42.626;23.380;2023-12-07T03:05:50;94055.19;;;4.02;100.00
39301;BME280;25019;42.626;23.380;2023-12-07T03:08:16;94055.44;;;3.94;100.00
39301;BME280;25019;42.626;23.380;2023-12-07T03:10:42;94059.91;;;3.94;100.00
39301;BME280;25019;42.626;23.380;2023-12-07T03:13:07;94043.66;;;3.78;100.00
39301;BME280;25019;42.626;23.380;2023-12-07T03:15:33;94057.53;;;3.85;100.00
39301;BME280;25019;42.626;23.380;2023-12-07T03:17:59;94059.09;;;3.93;100.00
39301;BME280;25019;42.626;23.380;2023-12-07T03:20:25;94053.25;;;3.91;100.00
39301;BME280;25019;42.626;23.380;2023-12-07T03:22:50;94019.53;;;3.63;100.00
39301;BME280;25019;42.626;23.380;2023-12-07T03:25:16;94072.13;;;4.07;100.00
39301;BME280;25019;42.626;23.380;2023-12-07T03:27:42;94083.00;;;4.10;100.00
39301;BME280;25019;42.626;23.380;2023-12-07T03:30:08;94083.22;;;4.09;100.00
39301;BME280;25019;42.626;23.380;2023-12-07T03:32:33;94011.22;;;3.66;100.00
39301;BME280;25019;42.626;23.380;2023-12-07T03:34:59;94071.28;;;4.13;100.00
39301;BME280;25019;42.626;23.380;2023-12-07T03:37:25;94070.44;;;4.12;100.00
39301;BME280;25019;42.626;23.380;2023-12-07T03:39:50;94078.06;;;4.20;100.00
39301;BME280;25019;42.626;23.380;2023-12-07T03:42:17;94083.69;;;4.24;100.00
39301;BME280;25019;42.626;23.380;2023-12-07T03:44:43;94018.78;;;3.81;100.00
39301;BME280;25019;42.626;23.380;2023-12-07T03:47:09;94072.59;;;4.22;100.00
39301;BME280;25019;42.626;23.380;2023-12-07T03:49:35;94015.91;;;3.89;100.00
39301;BME280;25019;42.626;23.380;2023-12-07T03:52:01;94071.97;;;4.27;100.00
39301;BME280;25019;42.626;23.380;2023-12-07T03:54:26;94007.88;;;3.77;100.00
39301;BME280;25019;42.626;23.380;2023-12-07T03:56:52;94025.84;;;3.80;100.00
39301;BME280;25019;42.626;23.380;2023-12-07T03:59:18;94037.19;;;3.81;100.00
39301;BME280;25019;42.626;23.380;2023-12-07T04:01:43;94079.59;;;4.10;100.00
39301;BME280;25019;42.626;23.380;2023-12-07T04:04:09;94027.16;;;3.71;100.00
39301;BME280;25019;42.626;23.380;2023-12-07T04:06:35;94019.63;;;3.49;100.00
39301;BME280;25019;42.626;23.380;2023-12-07T04:09:00;94069.22;;;3.89;100.00
39301;BME280;25019;42.626;23.380;2023-12-07T04:11:26;94027.66;;;3.54;100.00
39301;BME280;25019;42.626;23.380;2023-12-07T04:13:52;94050.81;;;3.64;100.00
39301;BME280;25019;42.626;23.380;2023-12-07T04:16:17;94023.38;;;3.35;100.00
39301;BME280;25019;42.626;23.380;2023-12-07T04:18:43;94040.84;;;3.48;100.00
39301;BME280;25019;42.626;23.380;2023-12-07T04:21:09;94076.25;;;3.70;100.00
39301;BME280;25019;42.626;23.380;2023-12-07T04:23:35;94066.72;;;3.76;100.00
39301;BME280;25019;42.626;23.380;2023-12-07T04:26:00;93973.19;;;3.18;100.00
39301;BME280;25019;42.626;23.380;2023-12-07T04:28:26;94098.84;;;4.03;100.00
39301;BME280;25019;42.626;23.380;2023-12-07T04:30:52;94090.59;;;4.00;100.00
39301;BME280;25019;42.626;23.380;2023-12-07T04:33:17;94104.31;;;4.02;100.00
39301;BME280;25019;42.626;23.380;2023-12-07T04:35:43;94066.56;;;3.64;100.00
39301;BME280;25019;42.626;23.380;2023-12-07T04:38:09;94097.00;;;3.79;100.00
39301;BME280;25019;42.626;23.380;2023-12-07T04:40:34;94048.91;;;3.53;100.00
39301;BME280;25019;42.626;23.380;2023-12-07T04:43:00;94106.59;;;3.92;100.00
39301;BME280;25019;42.626;23.380;2023-12-07T04:45:26;94103.56;;;3.95;100.00
39301;BME280;25019;42.626;23.380;2023-12-07T04:47:51;94108.06;;;3.87;100.00
39301;BME280;25019;42.626;23.380;2023-12-07T04:50:17;94067.88;;;3.55;100.00
39301;BME280;25019;42.626;23.380;2023-12-07T04:52:43;94063.69;;;3.47;100.00
39301;BME280;25019;42.626;23.380;2023-12-07T04:55:09;94100.09;;;3.69;100.00
39301;BME280;25019;42.626;23.380;2023-12-07T04:57:35;94000.69;;;3.08;100.00
39301;BME280;25019;42.626;23.380;2023-12-07T05:00:02;94114.91;;;3.88;100.00
39301;BME280;25019;42.626;23.380;2023-12-07T05:02:31;94080.06;;;3.74;100.00
39301;BME280;25019;42.626;23.380;2023-12-07T05:04:57;94023.72;;;3.38;100.00
39301;BME280;25019;42.626;23.380;2023-12-07T05:07:23;94103.56;;;3.95;100.00
39301;BME280;25019;42.626;23.380;2023-12-07T05:09:49;94033.91;;;3.60;100.00
39301;BME280;25019;42.626;23.380;2023-12-07T05:12:17;94040.53;;;3.63;100.00
39301;BME280;25019;42.626;23.380;2023-12-07T05:14:42;94057.00;;;3.77;100.00
39301;BME280;25019;42.626;23.380;2023-12-07T05:17:08;94110.63;;;4.19;100.00
39301;BME280;25019;42.626;23.380;2023-12-07T05:19:34;94124.53;;;4.27;100.00
39301;BME280;25019;42.626;23.380;2023-12-07T05:22:00;94132.41;;;4.27;100.00
39301;BME280;25019;42.626;23.380;2023-12-07T05:24:27;94054.38;;;3.77;100.00
39301;BME280;25019;42.626;23.380;2023-12-07T05:26:53;94132.41;;;4.27;100.00
39301;BME280;25019;42.626;23.380;2023-12-07T05:29:19;94116.38;;;4.10;100.00
39301;BME280;25019;42.626;23.380;2023-12-07T05:31:44;94132.03;;;4.23;100.00
39301;BME280;25019;42.626;23.380;2023-12-07T05:34:10;94124.38;;;4.22;100.00
39301;BME280;25019;42.626;23.380;2023-12-07T05:36:36;94063.88;;;3.78;100.00
39301;BME280;25019;42.626;23.380;2023-12-07T05:39:02;94070.31;;;3.82;100.00
39301;BME280;25019;42.626;23.380;2023-12-07T05:41:28;94143.56;;;4.22;100.00
39301;BME280;25019;42.626;23.380;2023-12-07T05:43:54;94136.09;;;4.19;100.00
39301;BME280;25019;42.626;23.380;2023-12-07T05:46:19;94091.75;;;3.79;100.00
39301;BME280;25019;42.626;23.380;2023-12-07T05:48:45;94071.22;;;3.69;100.00
39301;BME280;25019;42.626;23.380;2023-12-07T05:51:16;94144.47;;;4.09;100.00
39301;BME280;25019;42.626;23.380;2023-12-07T05:53:43;94136.59;;;4.09;100.00
39301;BME280;25019;42.626;23.380;2023-12-07T05:56:09;94072.22;;;3.68;100.00
39301;BME280;25019;42.626;23.380;2023-12-07T05:58:34;94137.47;;;4.03;100.00
39301;BME280;25019;42.626;23.380;2023-12-07T06:01:01;94035.66;;;3.41;100.00
39301;BME280;25019;42.626;23.380;2023-12-07T06:06:13;94131.03;;;3.99;100.00
39301;BME280;25019;42.626;23.380;2023-12-07T06:08:40;94086.16;;;3.68;100.00
39301;BME280;25019;42.626;23.380;2023-12-07T06:11:05;94146.06;;;4.17;100.00
39301;BME280;25019;42.626;23.380;2023-12-07T06:13:31;94069.19;;;3.64;100.00
39301;BME280;25019;42.626;23.380;2023-12-07T06:15:57;94124.69;;;4.07;100.00
39301;BME280;25019;42.626;23.380;2023-12-07T06:18:23;94148.19;;;4.27;100.00
39301;BME280;25019;42.626;23.380;2023-12-07T06:20:48;94088.03;;;3.86;100.00
39301;BME280;25019;42.626;23.380;2023-12-07T06:23:14;94163.06;;;4.40;100.00
39301;BME280;25019;42.626;23.380;2023-12-07T06:25:40;94076.09;;;3.90;100.00
39301;BME280;25019;42.626;23.380;2023-12-07T06:28:05;94131.75;;;4.31;100.00
39301;BME280;25019;42.626;23.380;2023-12-07T06:30:31;94149.47;;;4.43;100.00
39301;BME280;25019;42.626;23.380;2023-12-07T06:32:57;94144.06;;;4.38;100.00
39301;BME280;25019;42.626;23.380;2023-12-07T06:35:23;94147.56;;;4.50;100.00
39301;BME280;25019;42.626;23.380;2023-12-07T06:37:48;94103.50;;;4.27;100.00
39301;BME280;25019;42.626;23.380;2023-12-07T06:40:14;94076.56;;;4.06;100.00
39301;BME280;25019;42.626;23.380;2023-12-07T06:42:40;94118.34;;;4.40;100.00
39301;BME280;25019;42.626;23.380;2023-12-07T06:45:06;94164.88;;;4.83;100.00
39301;BME280;25019;42.626;23.380;2023-12-07T06:47:37;94156.53;;;4.86;100.00
39301;BME280;25019;42.626;23.380;2023-12-07T06:50:04;94166.13;;;4.99;100.00
39301;BME280;25019;42.626;23.380;2023-12-07T06:52:30;94146.69;;;5.00;100.00
39301;BME280;25019;42.626;23.380;2023-12-07T06:54:56;94167.28;;;5.22;100.00
39301;BME280;25019;42.626;23.380;2023-12-07T06:57:21;94143.44;;;5.17;100.00
39301;BME280;25019;42.626;23.380;2023-12-07T06:59:47;94152.66;;;5.26;100.00
39301;BME280;25019;42.626;23.380;2023-12-07T07:02:13;94171.41;;;5.36;100.00
39301;BME280;25019;42.626;23.380;2023-12-07T07:04:38;94165.91;;;5.38;100.00
39301;BME280;25019;42.626;23.380;2023-12-07T07:07:04;94171.59;;;5.35;100.00
39301;BME280;25019;42.626;23.380;2023-12-07T07:09:30;94174.63;;;5.38;100.00
39301;BME280;25019;42.626;23.380;2023-12-07T07:11:56;94133.38;;;5.14;100.00
39301;BME280;25019;42.626;23.380;2023-12-07T07:14:22;94110.78;;;5.06;100.00
39301;BME280;25019;42.626;23.380;2023-12-07T07:16:47;94180.00;;;5.44;100.00
39301;BME280;25019;42.626;23.380;2023-12-07T07:19:13;94150.84;;;5.27;100.00
39301;BME280;25019;42.626;23.380;2023-12-07T07:21:39;94172.84;;;5.32;100.00
39301;BME280;25019;42.626;23.380;2023-12-07T07:24:05;94148.88;;;5.03;100.00
39301;BME280;25019;42.626;23.380;2023-12-07T07:26:31;94184.44;;;5.13;100.00
39301;BME280;25019;42.626;23.380;2023-12-07T07:28:57;94168.31;;;5.02;100.00
39301;BME280;25019;42.626;23.380;2023-12-07T07:31:23;94168.47;;;5.07;100.00
39301;BME280;25019;42.626;23.380;2023-12-07T07:33:49;94172.41;;;5.17;100.00
39301;BME280;25019;42.626;23.380;2023-12-07T07:36:15;94173.38;;;5.22;100.00
39301;BME280;25019;42.626;23.380;2023-12-07T07:38:41;94137.69;;;5.08;100.00
39301;BME280;25019;42.626;23.380;2023-12-07T07:41:07;94028.28;;;4.44;100.00
39301;BME280;25019;42.626;23.380;2023-12-07T07:43:33;94175.06;;;5.35;100.00
39301;BME280;25019;42.626;23.380;2023-12-07T07:46:03;94149.31;;;5.19;100.00
39301;BME280;25019;42.626;23.380;2023-12-07T07:48:29;94178.66;;;5.22;100.00
39301;BME280;25019;42.626;23.380;2023-12-07T07:50:55;94184.69;;;5.23;100.00
39301;BME280;25019;42.626;23.380;2023-12-07T07:53:20;94186.25;;;5.12;100.00
39301;BME280;25019;42.626;23.380;2023-12-07T07:55:46;94193.34;;;5.12;100.00
39301;BME280;25019;42.626;23.380;2023-12-07T07:58:12;94197.22;;;5.09;100.00
39301;BME280;25019;42.626;23.380;2023-12-07T08:00:38;94188.44;;;4.97;100.00
39301;BME280;25019;42.626;23.380;2023-12-07T08:03:03;94105.47;;;4.31;100.00
39301;BME280;25019;42.626;23.380;2023-12-07T08:05:29;94204.63;;;4.75;100.00
39301;BME280;25019;42.626;23.380;2023-12-07T08:07:54;94124.56;;;4.20;100.00
39301;BME280;25019;42.626;23.380;2023-12-07T08:10:20;94168.09;;;4.41;100.00
39301;BME280;25019;42.626;23.380;2023-12-07T08:12:46;94202.34;;;4.60;100.00
39301;BME280;25019;42.626;23.380;2023-12-07T08:15:12;94197.50;;;4.57;100.00
39301;BME280;25019;42.626;23.380;2023-12-07T08:17:41;94206.03;;;4.52;100.00
39301;BME280;25019;42.626;23.380;2023-12-07T08:20:10;94194.28;;;4.29;100.00
39301;BME280;25019;42.626;23.380;2023-12-07T08:22:39;94042.84;;;3.20;100.00
39301;BME280;25019;42.626;23.380;2023-12-07T08:25:07;94107.69;;;3.52;100.00
39301;BME280;25019;42.626;23.380;2023-12-07T08:27:33;94230.44;;;4.34;100.00
39301;BME280;25019;42.626;23.380;2023-12-07T08:30:00;94228.25;;;4.31;100.00
39301;BME280;25019;42.626;23.380;2023-12-07T08:32:25;94203.13;;;4.10;100.00
39301;BME280;25019;42.626;23.380;2023-12-07T08:34:52;94236.16;;;4.24;100.00
39301;BME280;25019;42.626;23.380;2023-12-07T08:37:18;94222.81;;;4.26;100.00
39301;BME280;25019;42.626;23.380;2023-12-07T08:39:44;94184.00;;;3.96;100.00
39301;BME280;25019;42.626;23.380;2023-12-07T08:42:09;94242.38;;;4.37;100.00
39301;BME280;25019;42.626;23.380;2023-12-07T08:44:35;94247.88;;;4.28;100.00
39301;BME280;25019;42.626;23.380;2023-12-07T08:47:01;94147.44;;;3.55;100.00
39301;BME280;25019;42.626;23.380;2023-12-07T08:49:28;94181.13;;;3.65;100.00
39301;BME280;25019;42.626;23.380;2023-12-07T08:51:53;94183.50;;;3.35;100.00
39301;BME280;25019;42.626;23.380;2023-12-07T08:54:19;94147.41;;;3.17;100.00
39301;BME280;25019;42.626;23.380;2023-12-07T08:56:45;94242.50;;;3.78;100.00
39301;BME280;25019;42.626;23.380;2023-12-07T08:59:11;94087.84;;;2.78;100.00
39301;BME280;25019;42.626;23.380;2023-12-07T09:01:36;94248.06;;;3.95;100.00
39301;BME280;25019;42.626;23.380;2023-12-07T09:04:02;94220.06;;;3.82;100.00
39301;BME280;25019;42.626;23.380;2023-12-07T09:06:29;94219.03;;;3.83;100.00
39301;BME280;25019;42.626;23.380;2023-12-07T09:08:54;94139.50;;;3.23;100.00
39301;BME280;25019;42.626;23.380;2023-12-07T09:11:20;94230.00;;;3.66;100.00
39301;BME280;25019;42.626;23.380;2023-12-07T09:13:46;94215.16;;;3.47;100.00
39301;BME280;25019;42.626;23.380;2023-12-07T09:16:12;94204.28;;;3.36;100.00
39301;BME280;25019;42.626;23.380;2023-12-07T09:18:38;94175.13;;;3.06;100.00
39301;BME280;25019;42.626;23.380;2023-12-07T09:21:04;94233.16;;;3.36;100.00
39301;BME280;25019;42.626;23.380;2023-12-07T09:23:31;94181.59;;;2.96;100.00
39301;BME280;25019;42.626;23.380;2023-12-07T09:25:57;94163.88;;;2.85;100.00
39301;BME280;25019;42.626;23.380;2023-12-07T09:28:22;94192.06;;;3.10;100.00
39301;BME280;25019;42.626;23.380;2023-12-07T09:30:49;94228.50;;;3.38;100.00
39301;BME280;25019;42.626;23.380;2023-12-07T09:33:15;94237.59;;;3.42;100.00
39301;BME280;25019;42.626;23.380;2023-12-07T09:35:40;94119.31;;;2.72;100.00
39301;BME280;25019;42.626;23.380;2023-12-07T09:38:06;94195.47;;;3.17;100.00
39301;BME280;25019;42.626;23.380;2023-12-07T09:40:32;94171.69;;;3.05;100.00
39301;BME280;25019;42.626;23.380;2023-12-07T09:42:58;94180.97;;;3.08;100.00
39301;BME280;25019;42.626;23.380;2023-12-07T09:45:24;94204.94;;;3.25;100.00
39301;BME280;25019;42.626;23.380;2023-12-07T09:47:51;94234.53;;;3.45;100.00
39301;BME280;25019;42.626;23.380;2023-12-07T09:50:18;94251.53;;;3.43;100.00
39301;BME280;25019;42.626;23.380;2023-12-07T09:52:50;94252.72;;;3.40;100.00
39301;BME280;25019;42.626;23.380;2023-12-07T09:55:18;94248.34;;;3.34;100.00
39301;BME280;25019;42.626;23.380;2023-12-07T09:57:45;94250.75;;;3.22;100.00
39301;BME280;25019;42.626;23.380;2023-12-07T10:00:12;94214.91;;;2.82;100.00
39301;BME280;25019;42.626;23.380;2023-12-07T10:02:42;94252.03;;;2.99;100.00
39301;BME280;25019;42.626;23.380;2023-12-07T10:05:09;94251.41;;;2.97;100.00
39301;BME280;25019;42.626;23.380;2023-12-07T10:07:38;94247.41;;;2.95;100.00
39301;BME280;25019;42.626;23.380;2023-12-07T10:10:05;94233.69;;;2.79;100.00
39301;BME280;25019;42.626;23.380;2023-12-07T10:12:31;94254.28;;;2.89;100.00
39301;BME280;25019;42.626;23.380;2023-12-07T10:15:18;94249.41;;;2.79;100.00
39301;BME280;25019;42.626;23.380;2023-12-07T10:17:54;94255.06;;;2.69;100.00
39301;BME280;25019;42.626;23.380;2023-12-07T10:20:21;94243.78;;;2.42;100.00
39301;BME280;25019;42.626;23.380;2023-12-07T10:23:05;94249.63;;;2.51;100.00
39301;BME280;25019;42.626;23.380;2023-12-07T10:25:35;94244.00;;;2.54;100.00
39301;BME280;25019;42.626;23.380;2023-12-07T10:28:01;94239.97;;;2.38;100.00
39301;BME280;25019;42.626;23.380;2023-12-07T10:30:32;94242.16;;;2.28;100.00
39301;BME280;25019;42.626;23.380;2023-12-07T10:32:58;94211.91;;;2.05;100.00
39301;BME280;25019;42.626;23.380;2023-12-07T10:35:24;94219.53;;;1.93;100.00
39301;BME280;25019;42.626;23.380;2023-12-07T10:37:51;94161.44;;;1.42;100.00
39301;BME280;25019;42.626;23.380;2023-12-07T10:40:16;94252.63;;;2.07;100.00
39301;BME280;25019;42.626;23.380;2023-12-07T10:42:47;94254.81;;;1.90;100.00
39301;BME280;25019;42.626;23.380;2023-12-07T10:45:14;94165.41;;;1.31;100.00
39301;BME280;25019;42.626;23.380;2023-12-07T10:47:43;94250.53;;;1.83;100.00
39301;BME280;25019;42.626;23.380;2023-12-07T10:50:09;94243.44;;;1.70;100.00
39301;BME280;25019;42.626;23.380;2023-12-07T10:52:52;94244.66;;;1.67;100.00
39301;BME280;25019;42.626;23.380;2023-12-07T10:55:22;94152.47;;;1.10;100.00
39301;BME280;25019;42.626;23.380;2023-12-07T10:57:55;94220.78;;;1.35;100.00
39301;BME280;25019;42.626;23.380;2023-12-07T11:00:21;94203.81;;;1.17;100.00
39301;BME280;25019;42.626;23.380;2023-12-07T11:02:53;94216.06;;;1.17;100.00
39301;BME280;25019;42.626;23.380;2023-12-07T11:05:19;94252.78;;;1.30;100.00
39301;BME280;25019;42.626;23.380;2023-12-07T11:08:04;94241.69;;;1.28;100.00
39301;BME280;25019;42.626;23.380;2023-12-07T11:10:43;94229.59;;;1.21;100.00
39301;BME280;25019;42.626;23.380;2023-12-07T11:13:22;94242.69;;;1.27;100.00
39301;BME280;25019;42.626;23.380;2023-12-07T11:15:49;94245.69;;;1.24;100.00
39301;BME280;25019;42.626;23.380;2023-12-07T11:18:14;94250.69;;;1.19;100.00
39301;BME280;25019;42.626;23.380;2023-12-07T11:20:43;94243.81;;;1.11;100.00
39301;BME280;25019;42.626;23.380;2023-12-07T11:23:17;94224.66;;;1.04;100.00
39301;BME280;25019;42.626;23.380;2023-12-07T11:25:47;94218.00;;;1.01;100.00
39301;BME280;25019;42.626;23.380;2023-12-07T11:28:14;94250.13;;;1.24;100.00
39301;BME280;25019;42.626;23.380;2023-12-07T11:30:45;94218.25;;;1.07;100.00
39301;BME280;25019;42.626;23.380;2023-12-07T11:33:12;94235.34;;;1.09;100.00
39301;BME280;25019;42.626;23.380;2023-12-07T11:38:27;94143.28;;;0.43;100.00
39301;BME280;25019;42.626;23.380;2023-12-07T11:40:54;94226.44;;;0.97;100.00
39301;BME280;25019;42.626;23.380;2023-12-07T11:45:59;94200.28;;;0.97;100.00
39301;BME280;25019;42.626;23.380;2023-12-07T11:48:25;94225.53;;;1.18;100.00
39301;BME280;25019;42.626;23.380;2023-12-07T11:51:05;94217.66;;;1.11;100.00
39301;BME280;25019;42.626;23.380;2023-12-07T11:53:35;94224.28;;;1.14;100.00
39301;BME280;25019;42.626;23.380;2023-12-07T11:56:06;94218.88;;;1.15;100.00
39301;BME280;25019;42.626;23.380;2023-12-07T11:58:34;94221.69;;;1.14;100.00
39301;BME280;25019;42.626;23.380;2023-12-07T12:01:00;94218.44;;;1.12;100.00
39301;BME280;25019;42.626;23.380;2023-12-07T12:03:28;94210.59;;;1.12;100.00
39301;BME280;25019;42.626;23.380;2023-12-07T12:05:54;94201.94;;;1.04;100.00
39301;BME280;25019;42.626;23.380;2023-12-07T12:08:21;94195.81;;;0.91;100.00
39301;BME280;25019;42.626;23.380;2023-12-07T12:10:47;94221.25;;;1.03;100.00
39301;BME280;25019;42.626;23.380;2023-12-07T12:13:15;94184.75;;;0.88;100.00
39301;BME280;25019;42.626;23.380;2023-12-07T12:15:41;94124.16;;;0.43;100.00
39301;BME280;25019;42.626;23.380;2023-12-07T12:18:08;94171.59;;;0.75;100.00
39301;BME280;25019;42.626;23.380;2023-12-07T12:20:34;94170.78;;;0.68;100.00
39301;BME280;25019;42.626;23.380;2023-12-07T12:23:00;94220.03;;;1.06;100.00
39301;BME280;25019;42.626;23.380;2023-12-07T12:25:29;94219.06;;;1.14;100.00
39301;BME280;25019;42.626;23.380;2023-12-07T12:28:01;94142.44;;;0.71;100.00
39301;BME280;25019;42.626;23.380;2023-12-07T12:30:28;94130.09;;;0.58;100.00
39301;BME280;25019;42.626;23.380;2023-12-07T12:32:55;94221.13;;;1.18;100.00
39301;BME280;25019;42.626;23.380;2023-12-07T12:35:21;94122.38;;;0.43;100.00
39301;BME280;25019;42.626;23.380;2023-12-07T12:37:48;94225.09;;;1.08;100.00
39301;BME280;25019;42.626;23.380;2023-12-07T12:40:19;94163.75;;;0.75;100.00
39301;BME280;25019;42.626;23.380;2023-12-07T12:42:51;94219.88;;;1.08;100.00
39301;BME280;25019;42.626;23.380;2023-12-07T12:45:17;94214.25;;;1.11;100.00
39301;BME280;25019;42.626;23.380;2023-12-07T12:47:47;94167.53;;;0.66;100.00
39301;BME280;25019;42.626;23.380;2023-12-07T12:50:36;94173.81;;;0.78;100.00
39301;BME280;25019;42.626;23.380;2023-12-07T12:53:04;94201.22;;;0.89;100.00
39301;BME280;25019;42.626;23.380;2023-12-07T12:55:32;94146.13;;;0.49;100.00
39301;BME280;25019;42.626;23.380;2023-12-07T12:57:58;94126.31;;;0.33;100.00
39301;BME280;25019;42.626;23.380;2023-12-07T13:00:24;94154.06;;;0.34;100.00
39301;BME280;25019;42.626;23.380;2023-12-07T13:02:50;94179.47;;;0.47;100.00
39301;BME280;25019;42.626;23.380;2023-12-07T13:05:16;94171.59;;;0.40;100.00